»·PEaware :: N641ER KLAX-KSNA

N641ER :: KLAX-KSNA

FLIGHT INFORMATION

Flight Status: Arrived
Operator: Privately registered:
United States
More flights under this callsign
Pilot: Jonathan N. (25079)
Aircraft: Unknown
(DA62)
More flights by this aircraft type
Origin: KLAX Los Angeles Intl
United States
Destination: KSNA John Wayne-Orange Co
United States
More flights between these airports :: More routes between these airports
Route: SLI8 SLI
File this flight plan on PilotEdge
Remarks: ILS 20R, I-6 RAT
Altitude:
(Current/Filed)
4,000ft
Speed:
(Current/Filed)
170kts
Departed: 08-Feb-20 08:56 PM
Arrived: 08-Feb-20 09:28 PM
Distance/Time
Traveled:
31nm/0:31
Distance/Time
To Go:
Arrived

Flight Plot

Page will automatically refresh every two minutes.

Flight plan parsing failed; only flown route is shown


Map Options




Map Legend


Flown Route
Filed Route
Departure Airport
Arrival Airport
Navaid (VOR, NDB)
Fix

Horizontal Profiles

Position Reports

Time Latitude Longitude Heading Altitude Ground
Speed
08-Feb-20 20:39 33.933207 -118.397461 264 109ft 0kts
08-Feb-20 20:41 33.933207 -118.397461 264 109ft 0kts
08-Feb-20 20:41 33.933207 -118.397461 264 109ft 0kts
08-Feb-20 20:42 33.933207 -118.397461 264 109ft 0kts
08-Feb-20 20:44 33.933207 -118.397461 264 109ft 0kts
08-Feb-20 20:44 33.933207 -118.397461 264 109ft 0kts
08-Feb-20 20:45 33.933207 -118.397461 264 109ft 0kts
08-Feb-20 20:47 33.933896 -118.399168 281 110ft 20kts
08-Feb-20 20:47 33.934063 -118.400062 306 112ft 0kts
08-Feb-20 20:48 33.935066 -118.393139 82 102ft 39kts
08-Feb-20 20:49 33.936482 -118.382816 7 96ft 0kts
08-Feb-20 20:50 33.936483 -118.382816 6 96ft 0kts
08-Feb-20 20:51 33.936481 -118.382816 7 96ft 0kts
08-Feb-20 20:52 33.936481 -118.382816 7 96ft 0kts
08-Feb-20 20:53 33.936481 -118.382816 7 96ft 0kts
08-Feb-20 20:54 33.937108 -118.383020 312 96ft 25kts
08-Feb-20 20:55 33.934188 -118.409501 264 940ft 98kts
08-Feb-20 20:56 33.930028 -118.441250 262 2289ft 96kts
08-Feb-20 20:57 33.913806 -118.465365 212 3578ft 103kts
08-Feb-20 20:58 33.881843 -118.467743 171 4035ft 145kts
08-Feb-20 20:59 33.842161 -118.445737 141 4001ft 169kts
08-Feb-20 21:00 33.805989 -118.408671 141 3999ft 171kts
08-Feb-20 21:01 33.772976 -118.368251 97 3997ft 173kts
08-Feb-20 21:02 33.773528 -118.310254 86 3998ft 174kts
08-Feb-20 21:03 33.775907 -118.252055 86 3996ft 174kts
08-Feb-20 21:04 33.778203 -118.192623 86 3996ft 182kts
08-Feb-20 21:05 33.780533 -118.131425 86 3992ft 184kts
08-Feb-20 21:06 33.782819 -118.070443 86 3986ft 175kts
08-Feb-20 21:07 33.798471 -118.017383 62 3991ft 166kts
08-Feb-20 21:08 33.818153 -117.968470 62 3990ft 156kts
08-Feb-20 21:09 33.836725 -117.922286 62 4002ft 163kts
08-Feb-20 21:10 33.857984 -117.869320 62 3995ft 182kts
08-Feb-20 21:11 33.880214 -117.813814 62 3993ft 183kts
08-Feb-20 21:12 33.901821 -117.759758 61 3981ft 160kts
08-Feb-20 21:13 33.918326 -117.718463 60 3990ft 133kts
08-Feb-20 21:14 33.948017 -117.696060 23 3990ft 126kts
08-Feb-20 21:15 33.972302 -117.703755 257 3991ft 120kts
08-Feb-20 21:16 33.941149 -117.706291 161 3991ft 133kts
08-Feb-20 21:17 33.910173 -117.717897 214 3917ft 117kts
08-Feb-20 21:18 33.882116 -117.737128 211 3648ft 115kts
08-Feb-20 21:19 33.854177 -117.755209 211 3393ft 112kts
08-Feb-20 21:20 33.826788 -117.772719 210 3027ft 111kts
08-Feb-20 21:21 33.800055 -117.789756 210 2690ft 97kts
08-Feb-20 21:22 33.776219 -117.804976 209 2183ft 97kts
08-Feb-20 21:23 33.752389 -117.820138 208 1659ft 96kts
08-Feb-20 21:24 33.728943 -117.835036 207 1139ft 95kts
08-Feb-20 21:25 33.705542 -117.849895 207 624ft 95kts
08-Feb-20 21:26 33.682683 -117.864394 207 137ft 84kts
08-Feb-20 21:27 33.669573 -117.872043 155 60ft 22kts
08-Feb-20 21:28 33.668373 -117.871672 220 60ft 23kts
08-Feb-20 21:29 33.666685 -117.872889 317 60ft 0kts
08-Feb-20 21:30 33.666685 -117.872889 317 60ft 0kts

Navigation Log

Ident Type
Flight plan parsing failed, navigation log unavailable